createdAt,value
2022-12-19T00:00:27.943Z,10.02
2022-12-19T00:02:55.662Z,9.70
2022-12-19T00:05:24.637Z,10.85
2022-12-19T00:07:54.618Z,10.77
2022-12-19T00:10:23.298Z,10.95
2022-12-19T00:12:52.242Z,11.45
2022-12-19T00:15:20.259Z,11.27
2022-12-19T00:17:47.793Z,9.88
2022-12-19T00:20:18.500Z,11.07
2022-12-19T00:22:46.724Z,11.68
2022-12-19T00:25:14.360Z,10.23
2022-12-19T00:27:42.203Z,10.52
2022-12-19T00:30:11.392Z,10.23
2022-12-19T00:32:39.779Z,10.50
2022-12-19T00:35:07.701Z,9.52
2022-12-19T00:37:35.810Z,8.75
2022-12-19T00:40:06.958Z,9.60
2022-12-19T00:42:34.542Z,9.23
2022-12-19T00:45:02.277Z,9.13
2022-12-19T00:47:29.913Z,8.52
2022-12-19T00:49:57.555Z,6.85
2022-12-19T00:52:25.139Z,7.90
2022-12-19T00:54:53.118Z,7.20
2022-12-19T00:57:20.932Z,6.90
2022-12-19T00:59:48.595Z,6.55
2022-12-19T01:02:16.243Z,6.75
2022-12-19T01:04:44.189Z,7.40
2022-12-19T01:07:13.369Z,6.25
2022-12-19T01:09:41.126Z,6.45
2022-12-19T01:12:30.271Z,6.97
2022-12-19T01:17:36.517Z,5.55
2022-12-19T01:20:20.098Z,6.97
2022-12-19T01:23:00.074Z,6.78
2022-12-19T01:25:28.415Z,6.45
2022-12-19T01:27:57.087Z,6.43
2022-12-19T01:30:25.601Z,6.50
2022-12-19T01:32:53.748Z,6.57
2022-12-19T01:35:22.312Z,6.22
2022-12-19T01:37:54.910Z,5.82
2022-12-19T01:40:36.743Z,6.15
2022-12-19T01:43:05.338Z,5.43
2022-12-19T01:45:38.387Z,6.20
2022-12-19T01:48:26.316Z,5.57
2022-12-19T01:51:02.706Z,5.47
2022-12-19T01:53:48.810Z,6.05
2022-12-19T01:56:22.574Z,4.53
2022-12-19T01:59:01.739Z,5.85
2022-12-19T02:01:41.499Z,5.50
2022-12-19T02:04:30.267Z,5.70
2022-12-19T02:07:15.321Z,5.88
2022-12-19T02:09:47.007Z,5.45
2022-12-19T02:12:15.029Z,4.78
2022-12-19T02:14:43.019Z,5.28
2022-12-19T02:17:41.629Z,5.43
2022-12-19T02:20:21.597Z,4.90
2022-12-19T02:22:55.081Z,4.90
2022-12-19T02:25:35.350Z,4.55
2022-12-19T02:28:24.406Z,5.13
2022-12-19T02:30:58.379Z,4.72
2022-12-19T02:33:48.488Z,3.92
2022-12-19T02:36:24.797Z,5.45
2022-12-19T02:39:09.801Z,4.47
2022-12-19T02:42:12.208Z,4.80
2022-12-19T02:44:47.839Z,5.07
2022-12-19T02:47:17.499Z,5.07
2022-12-19T02:49:45.340Z,5.00
2022-12-19T02:52:19.979Z,5.03
2022-12-19T02:54:53.500Z,4.40
2022-12-19T02:57:51.284Z,5.25
2022-12-19T03:00:25.437Z,5.50
2022-12-19T03:03:17.561Z,5.18
2022-12-19T03:06:15.283Z,5.40
2022-12-19T03:09:01.397Z,4.65
2022-12-19T03:11:34.527Z,5.32
2022-12-19T03:14:21.808Z,4.18
2022-12-19T03:16:52.448Z,5.30
2022-12-19T03:19:21.378Z,4.97
2022-12-19T03:21:50.442Z,5.00
2022-12-19T03:24:19.071Z,5.45
2022-12-19T03:26:52.709Z,5.32
2022-12-19T03:29:38.688Z,5.47
2022-12-19T03:32:14.642Z,5.10
2022-12-19T03:34:53.131Z,4.72
2022-12-19T03:37:24.483Z,4.70
2022-12-19T03:39:57.702Z,4.90
2022-12-19T03:42:46.677Z,4.68
2022-12-19T03:45:19.770Z,4.63
2022-12-19T03:47:58.993Z,4.50
2022-12-19T03:50:37.513Z,5.05
2022-12-19T03:53:19.572Z,4.47
2022-12-19T03:55:53.706Z,4.40
2022-12-19T03:58:32.552Z,5.50
2022-12-19T04:01:03.661Z,5.35
2022-12-19T04:03:31.999Z,5.20
2022-12-19T04:06:01.563Z,5.45
2022-12-19T04:08:31.988Z,5.80
2022-12-19T04:11:09.104Z,5.55
2022-12-19T04:13:42.052Z,6.00
2022-12-19T04:16:09.678Z,5.43
2022-12-19T04:18:40.849Z,5.30
2022-12-19T04:21:22.398Z,6.00
2022-12-19T04:23:57.958Z,5.22
2022-12-19T04:26:27.307Z,5.30
2022-12-19T04:29:02.663Z,6.05
2022-12-19T04:31:31.532Z,5.40
2022-12-19T04:33:59.218Z,5.53
2022-12-19T04:36:27.375Z,5.25
2022-12-19T04:38:55.164Z,6.10
2022-12-19T04:41:23.007Z,5.97
2022-12-19T04:43:50.537Z,5.65
2022-12-19T04:46:18.564Z,6.80
2022-12-19T04:48:46.028Z,4.60
2022-12-19T04:51:13.895Z,5.05
2022-12-19T04:53:41.427Z,5.25
2022-12-19T04:56:10.653Z,5.20
2022-12-19T04:58:38.552Z,4.68
2022-12-19T05:01:08.499Z,4.47
2022-12-19T05:03:37.068Z,4.20
2022-12-19T05:06:10.486Z,4.18
2022-12-19T05:08:40.036Z,3.80
2022-12-19T05:11:10.064Z,4.47
2022-12-19T05:13:39.891Z,4.50
2022-12-19T05:16:09.583Z,3.97
2022-12-19T05:18:38.488Z,4.15
2022-12-19T05:21:06.689Z,4.53
2022-12-19T05:23:34.947Z,3.42
2022-12-19T05:26:03.761Z,3.70
2022-12-19T05:28:32.357Z,4.95
2022-12-19T05:31:09.360Z,3.45
2022-12-19T05:33:37.531Z,3.97
2022-12-19T05:36:05.868Z,4.00
2022-12-19T05:38:33.582Z,3.55
2022-12-19T05:41:06.546Z,3.72
2022-12-19T05:43:34.164Z,3.90
2022-12-19T05:46:01.978Z,3.13
2022-12-19T05:48:29.561Z,3.90
2022-12-19T05:50:57.162Z,3.55
2022-12-19T05:53:26.219Z,4.00
2022-12-19T05:56:06.325Z,3.63
2022-12-19T05:58:37.807Z,3.90
2022-12-19T06:01:10.934Z,3.50
2022-12-19T06:03:39.242Z,3.80
2022-12-19T06:06:10.206Z,3.60
2022-12-19T06:08:38.661Z,3.30
2022-12-19T06:11:07.900Z,3.80
2022-12-19T06:13:36.895Z,3.08
2022-12-19T06:16:10.984Z,2.92
2022-12-19T06:18:44.248Z,2.83
2022-12-19T06:21:15.112Z,2.90
2022-12-19T06:23:44.044Z,2.83
2022-12-19T06:26:18.520Z,3.03
2022-12-19T06:28:52.346Z,2.78
2022-12-19T06:31:22.079Z,3.42
2022-12-19T06:33:50.487Z,3.03
2022-12-19T06:36:24.129Z,3.42
2022-12-19T06:38:52.528Z,3.08
2022-12-19T06:41:39.966Z,2.97
2022-12-19T06:44:12.186Z,3.00
2022-12-19T06:46:41.013Z,3.58
2022-12-19T06:49:11.188Z,3.15
2022-12-19T06:51:38.892Z,3.42
2022-12-19T06:54:06.558Z,3.38
2022-12-19T06:56:36.736Z,3.95
2022-12-19T06:59:05.300Z,4.00
2022-12-19T07:02:14.927Z,3.83
2022-12-19T07:04:48.290Z,3.55
2022-12-19T07:07:16.634Z,3.45
2022-12-19T07:09:44.419Z,3.58
2022-12-19T07:12:12.408Z,3.85
2022-12-19T07:14:40.232Z,3.78
2022-12-19T07:17:07.919Z,4.28
2022-12-19T07:19:35.863Z,3.22
2022-12-19T07:22:04.246Z,3.63
2022-12-19T07:24:32.486Z,3.40
2022-12-19T07:27:00.130Z,3.47
2022-12-19T07:29:28.158Z,2.97
2022-12-19T07:34:23.511Z,3.50
2022-12-19T07:36:51.257Z,3.22
2022-12-19T07:39:19.173Z,3.35
2022-12-19T07:41:46.867Z,3.40
2022-12-19T07:44:16.509Z,2.95
2022-12-19T07:46:45.084Z,4.32
2022-12-19T07:49:12.696Z,2.88
2022-12-19T07:51:40.470Z,3.72
2022-12-19T07:54:08.049Z,3.13
2022-12-19T07:56:35.874Z,3.13
2022-12-19T07:59:03.775Z,3.30
2022-12-19T08:01:31.495Z,2.83
2022-12-19T08:03:59.443Z,2.80
2022-12-19T08:06:28.246Z,3.03
2022-12-19T08:08:55.996Z,3.58
2022-12-19T08:11:27.850Z,3.50
2022-12-19T08:13:57.215Z,3.08
2022-12-19T08:16:26.944Z,2.53
2022-12-19T08:18:55.806Z,2.97
2022-12-19T08:21:25.078Z,2.90
2022-12-19T08:23:53.455Z,2.88
2022-12-19T08:26:25.439Z,2.40
2022-12-19T08:28:55.419Z,2.80
2022-12-19T08:31:26.930Z,2.80
2022-12-19T08:33:56.795Z,2.40
2022-12-19T08:36:25.003Z,4.70
2022-12-19T08:38:53.349Z,2.83
2022-12-19T08:41:21.305Z,2.58
2022-12-19T08:43:51.132Z,2.50
2022-12-19T08:46:20.009Z,2.60
2022-12-19T08:48:47.637Z,2.35
2022-12-19T08:51:17.448Z,2.80
2022-12-19T08:53:46.496Z,2.00
2022-12-19T08:56:18.256Z,1.67
2022-12-19T08:58:46.564Z,1.85
2022-12-19T09:01:19.856Z,1.60
2022-12-19T09:04:27.924Z,1.75
2022-12-19T09:06:37.805Z,2.10
2022-12-19T09:09:05.906Z,1.58
2022-12-19T09:11:36.102Z,1.90
2022-12-19T09:14:13.118Z,1.90
2022-12-19T09:16:42.807Z,1.83
2022-12-19T09:19:15.550Z,2.20
2022-12-19T09:21:43.435Z,1.42
2022-12-19T09:24:11.392Z,1.33
2022-12-19T09:26:39.526Z,1.65
2022-12-19T09:29:10.938Z,2.20
2022-12-19T09:31:55.303Z,1.48
2022-12-19T09:34:38.481Z,1.50
2022-12-19T09:37:08.974Z,1.58
2022-12-19T09:39:39.432Z,1.40
2022-12-19T09:42:25.867Z,1.80
2022-12-19T09:44:59.753Z,2.10
2022-12-19T09:47:31.150Z,1.65
2022-12-19T09:50:01.667Z,1.38
2022-12-19T09:52:44.432Z,1.20
2022-12-19T09:55:19.292Z,1.20
2022-12-19T09:57:53.462Z,1.60
2022-12-19T10:00:22.718Z,1.30
2022-12-19T10:02:53.941Z,1.10
2022-12-19T10:07:11.504Z,1.38
2022-12-19T10:08:47.230Z,1.20
2022-12-19T10:12:45.730Z,1.30
2022-12-19T10:15:18.180Z,1.38
2022-12-19T10:18:10.796Z,2.05
2022-12-19T10:20:43.890Z,1.90
2022-12-19T10:23:34.137Z,1.40
2022-12-19T10:26:46.463Z,1.98
2022-12-19T10:29:43.744Z,2.10
2022-12-19T10:32:26.763Z,2.15
2022-12-19T10:34:55.359Z,2.10
2022-12-19T10:37:51.105Z,2.45
2022-12-19T10:40:34.925Z,3.90
2022-12-19T10:43:51.163Z,2.13
2022-12-19T10:47:34.698Z,2.75
2022-12-19T10:52:52.547Z,3.08
2022-12-19T10:55:47.024Z,1.80
2022-12-19T10:58:22.817Z,2.40
2022-12-19T11:01:25.234Z,2.40
2022-12-19T11:04:25.976Z,2.05
2022-12-19T11:07:02.974Z,2.28
2022-12-19T11:09:41.758Z,2.38
2022-12-19T11:15:25.424Z,3.33
2022-12-19T11:19:50.780Z,2.58
2022-12-19T11:29:15.335Z,3.03
2022-12-19T11:30:37.134Z,6.18
2022-12-19T11:30:45.319Z,1.50
2022-12-19T11:32:43.643Z,1.33
2022-12-19T11:35:24.890Z,1.40
2022-12-19T11:38:01.381Z,1.30
2022-12-19T11:40:49.248Z,1.67
2022-12-19T11:43:45.434Z,1.73
2022-12-19T11:46:37.058Z,1.20
2022-12-19T11:49:28.727Z,1.48
2022-12-19T11:53:03.275Z,1.35
2022-12-19T11:55:26.032Z,1.40
2022-12-19T11:57:54.606Z,1.40
2022-12-19T12:00:24.901Z,1.13
2022-12-19T12:03:03.478Z,1.67
2022-12-19T12:05:47.803Z,2.15
2022-12-19T12:11:59.472Z,1.30
2022-12-19T12:18:40.800Z,1.75
2022-12-19T12:27:52.580Z,1.00
2022-12-19T12:31:04.170Z,1.20
2022-12-19T12:31:26.565Z,1.50
2022-12-19T12:32:05.787Z,0.90
2022-12-19T12:32:06.163Z,1.05
2022-12-19T12:35:15.250Z,1.40
2022-12-19T12:35:54.320Z,1.05
2022-12-19T12:39:43.177Z,1.20
2022-12-19T12:42:38.756Z,1.50
2022-12-19T12:45:27.252Z,1.30
2022-12-19T12:47:54.983Z,1.60
2022-12-19T12:50:25.378Z,1.30
2022-12-19T12:52:58.398Z,1.40
2022-12-19T12:55:34.126Z,1.20
2022-12-19T12:58:01.953Z,1.10
2022-12-19T13:00:34.818Z,1.20
2022-12-19T13:03:17.576Z,1.58
2022-12-19T13:06:05.745Z,1.83
2022-12-19T13:08:46.681Z,2.25
2022-12-19T13:11:39.143Z,1.17
2022-12-19T13:14:47.496Z,1.80
2022-12-19T13:17:33.373Z,2.00
2022-12-19T13:20:03.956Z,1.30
2022-12-19T13:22:32.404Z,1.48
2022-12-19T13:25:01.140Z,1.38
2022-12-19T13:27:34.011Z,1.45
2022-12-19T13:30:03.659Z,1.60
2022-12-19T13:32:54.450Z,1.52
2022-12-19T13:37:04.508Z,1.60
2022-12-19T13:39:55.327Z,1.50
2022-12-19T13:41:45.320Z,1.42
2022-12-19T13:44:13.602Z,1.50
2022-12-19T13:46:45.861Z,1.90
2022-12-19T13:49:34.701Z,1.38
2022-12-19T13:52:04.941Z,1.98
2022-12-19T13:54:44.940Z,1.48
2022-12-19T13:57:30.691Z,1.88
2022-12-19T14:00:02.254Z,1.40
2022-12-19T14:06:17.778Z,2.00
2022-12-19T14:08:28.931Z,2.00
2022-12-19T14:11:30.039Z,1.70
2022-12-19T14:14:19.151Z,1.85
2022-12-19T14:16:49.807Z,2.00
2022-12-19T14:19:18.696Z,1.90
2022-12-19T14:22:06.314Z,1.85
2022-12-19T14:24:33.923Z,1.83
2022-12-19T14:28:17.164Z,2.05
2022-12-19T14:30:29.716Z,2.10
2022-12-19T14:33:43.988Z,2.03
2022-12-19T14:36:07.600Z,2.13
2022-12-19T14:39:21.975Z,2.67
2022-12-19T14:42:02.900Z,3.35
2022-12-19T14:52:35.511Z,2.05
2022-12-19T14:52:50.880Z,1.90
2022-12-19T14:54:11.643Z,2.03
2022-12-19T14:54:26.802Z,2.03
2022-12-19T14:59:03.547Z,1.90
2022-12-19T15:01:35.158Z,2.10
2022-12-19T15:04:50.655Z,2.63
2022-12-19T15:07:06.901Z,1.92
2022-12-19T15:11:09.292Z,1.83
2022-12-19T15:14:47.191Z,2.08
2022-12-19T15:16:02.549Z,1.80
2022-12-19T15:18:33.284Z,3.22
2022-12-19T15:21:06.784Z,2.22
2022-12-19T15:23:34.747Z,1.95
2022-12-19T15:28:49.802Z,2.67
2022-12-19T15:31:34.967Z,2.25
2022-12-19T15:34:48.393Z,2.00
2022-12-19T15:37:14.366Z,1.65
2022-12-19T15:39:42.984Z,1.80
2022-12-19T15:42:21.687Z,1.80
2022-12-19T15:44:51.182Z,1.80
2022-12-19T15:47:28.967Z,1.85
2022-12-19T15:52:25.726Z,1.60
2022-12-19T15:54:53.472Z,1.80
2022-12-19T15:57:42.881Z,1.67
2022-12-19T16:00:25.513Z,1.48
2022-12-19T16:03:23.298Z,1.73
2022-12-19T16:05:41.878Z,1.25
2022-12-19T16:08:17.942Z,1.35
2022-12-19T16:10:48.408Z,0.95
2022-12-19T16:13:35.589Z,1.15
2022-12-19T16:18:44.498Z,1.60
2022-12-19T16:21:20.310Z,1.15
2022-12-19T16:23:48.110Z,1.30
2022-12-19T16:26:29.559Z,1.45
2022-12-19T16:28:57.625Z,1.20
2022-12-19T16:33:54.333Z,1.10
2022-12-19T16:36:22.313Z,1.40
2022-12-19T16:38:50.343Z,1.77
2022-12-19T16:41:25.483Z,1.08
2022-12-19T16:43:53.181Z,0.95
2022-12-19T16:46:23.770Z,1.20
2022-12-19T16:48:51.504Z,0.90
2022-12-19T16:51:21.488Z,0.98
2022-12-19T16:53:51.005Z,0.98
2022-12-19T16:56:29.840Z,1.10
2022-12-19T16:59:00.052Z,1.30
2022-12-19T17:01:28.439Z,1.20
2022-12-19T17:03:56.098Z,1.48
2022-12-19T17:06:23.907Z,1.50
2022-12-19T17:08:51.516Z,1.25
2022-12-19T17:11:23.389Z,1.40
2022-12-19T17:13:55.551Z,1.48
2022-12-19T17:16:23.337Z,1.40
2022-12-19T17:18:51.020Z,1.08
2022-12-19T17:21:21.634Z,2.08
2022-12-19T17:23:50.539Z,1.15
2022-12-19T17:26:18.619Z,1.08
2022-12-19T17:28:49.105Z,1.40
2022-12-19T17:31:26.516Z,1.00
2022-12-19T17:33:58.499Z,0.75
2022-12-19T17:36:32.700Z,0.90
2022-12-19T17:39:03.214Z,1.27
2022-12-19T17:43:58.273Z,1.58
2022-12-19T17:46:36.455Z,1.00
2022-12-19T17:49:04.128Z,0.80
2022-12-19T17:51:31.960Z,0.95
2022-12-19T17:56:29.681Z,0.70
2022-12-19T17:58:57.325Z,0.70
2022-12-19T18:01:25.328Z,0.65
2022-12-19T18:03:56.113Z,0.73
2022-12-19T18:06:23.767Z,1.05
2022-12-19T18:08:51.666Z,0.60
2022-12-19T18:11:23.725Z,0.70
2022-12-19T18:13:52.883Z,0.60
2022-12-19T18:16:25.782Z,0.88
2022-12-19T18:18:53.572Z,0.70
2022-12-19T18:21:24.786Z,0.50
2022-12-19T18:23:52.668Z,0.60
2022-12-19T18:26:20.515Z,0.60
2022-12-19T18:28:49.254Z,0.60
2022-12-19T18:31:26.514Z,0.70
2022-12-19T18:33:55.418Z,0.50
2022-12-19T18:36:25.398Z,1.13
2022-12-19T18:38:54.103Z,0.70
2022-12-19T18:41:22.580Z,1.05
2022-12-19T18:43:50.523Z,0.90
2022-12-19T18:46:26.044Z,0.80
2022-12-19T18:48:54.232Z,0.90
2022-12-19T18:51:23.382Z,1.20
2022-12-19T18:53:51.524Z,0.82
2022-12-19T18:58:48.741Z,1.45
2022-12-19T19:01:21.334Z,0.65
2022-12-19T19:03:56.818Z,1.15
2022-12-19T19:06:27.046Z,1.33
2022-12-19T19:08:56.938Z,1.30
2022-12-19T19:11:42.486Z,1.20
2022-12-19T19:14:11.377Z,1.40
2022-12-19T19:16:40.055Z,1.35
2022-12-19T19:19:12.064Z,1.65
2022-12-19T19:21:40.002Z,1.58
2022-12-19T19:24:20.928Z,2.00
2022-12-19T19:26:49.780Z,2.05
2022-12-19T19:29:19.596Z,1.80
2022-12-19T19:31:50.243Z,1.98
2022-12-19T19:34:27.074Z,2.20
2022-12-19T19:36:58.743Z,2.58
2022-12-19T19:39:27.845Z,2.30
2022-12-19T19:41:56.486Z,2.72
2022-12-19T19:44:24.036Z,2.72
2022-12-19T19:46:51.752Z,3.03
2022-12-19T19:49:21.088Z,3.42
2022-12-19T19:51:48.954Z,3.55
2022-12-19T19:54:16.755Z,3.22
2022-12-19T19:56:44.405Z,2.65
2022-12-19T19:59:12.058Z,2.72
2022-12-19T20:01:39.742Z,2.33
2022-12-19T20:04:07.577Z,2.45
2022-12-19T20:06:35.462Z,3.03
2022-12-19T20:09:04.025Z,2.38
2022-12-19T20:11:31.702Z,2.53
2022-12-19T20:13:59.340Z,2.50
2022-12-19T20:16:27.242Z,3.25
2022-12-19T20:21:24.817Z,3.00
2022-12-19T20:23:52.525Z,2.85
2022-12-19T20:26:20.335Z,3.90
2022-12-19T20:28:50.451Z,3.47
2022-12-19T20:31:19.838Z,4.30
2022-12-19T20:33:48.657Z,2.75
2022-12-19T20:36:17.255Z,2.85
2022-12-19T20:38:46.098Z,4.40
2022-12-19T20:41:14.077Z,3.30
2022-12-19T20:46:12.480Z,3.13
2022-12-19T20:48:41.339Z,3.72
2022-12-19T20:51:10.302Z,3.45
2022-12-19T20:53:39.991Z,3.60
2022-12-19T20:56:09.379Z,3.17
2022-12-19T20:58:38.377Z,3.83
2022-12-19T21:01:22.594Z,3.63
2022-12-19T21:03:51.370Z,3.55
2022-12-19T21:06:21.361Z,3.72
2022-12-19T21:08:49.199Z,3.95
2022-12-19T21:11:17.126Z,3.85
2022-12-19T21:16:17.049Z,2.85
2022-12-19T21:18:46.852Z,2.42
2022-12-19T21:21:18.997Z,2.45
2022-12-19T21:23:47.046Z,2.72
2022-12-19T21:31:21.838Z,3.08
2022-12-19T21:33:51.252Z,2.63
2022-12-19T21:36:24.252Z,3.10
2022-12-19T21:38:55.072Z,3.30
2022-12-19T21:41:23.030Z,2.45
2022-12-19T21:43:53.726Z,2.42
2022-12-19T21:46:24.392Z,2.30
2022-12-19T21:48:54.266Z,2.60
2022-12-19T21:51:25.254Z,3.08
2022-12-19T21:54:01.225Z,2.70
2022-12-19T21:56:32.174Z,2.67
2022-12-19T21:59:05.649Z,2.75
2022-12-19T22:01:34.075Z,3.00
2022-12-19T22:04:06.399Z,3.60
2022-12-19T22:06:37.351Z,2.03
2022-12-19T22:09:07.441Z,2.08
2022-12-19T22:11:36.687Z,2.28
2022-12-19T22:14:05.307Z,1.70
2022-12-19T22:16:33.644Z,2.72
2022-12-19T22:19:01.686Z,1.70
2022-12-19T22:24:01.429Z,2.22
2022-12-19T22:26:30.702Z,2.05
2022-12-19T22:28:59.913Z,2.17
2022-12-19T22:31:32.478Z,2.00
2022-12-19T22:34:03.116Z,2.13
2022-12-19T22:36:33.197Z,1.85
2022-12-19T22:39:02.882Z,1.20
2022-12-19T22:41:32.988Z,1.13
2022-12-19T22:44:00.672Z,1.20
2022-12-19T22:46:33.756Z,1.98
2022-12-19T22:49:04.226Z,1.38
2022-12-19T22:51:33.251Z,1.50
2022-12-19T22:54:01.152Z,1.60
2022-12-19T22:56:30.941Z,1.38
2022-12-19T22:59:05.232Z,1.40
2022-12-19T23:01:38.900Z,1.30
2022-12-19T23:04:08.308Z,1.10
2022-12-19T23:06:37.436Z,1.00
2022-12-19T23:09:07.410Z,1.10
2022-12-19T23:11:38.386Z,1.25
2022-12-19T23:14:08.145Z,1.30
2022-12-19T23:16:35.903Z,1.55
2022-12-19T23:19:05.032Z,1.17
2022-12-19T23:21:32.641Z,1.10
2022-12-19T23:24:00.558Z,1.80
2022-12-19T23:26:31.213Z,1.65
2022-12-19T23:29:04.470Z,1.20
2022-12-19T23:31:32.644Z,1.65
2022-12-19T23:41:44.264Z,0.80
2022-12-19T23:44:12.180Z,1.30
2022-12-19T23:46:40.450Z,0.80
2022-12-19T23:51:35.550Z,0.98
2022-12-19T23:54:03.386Z,0.98
2022-12-19T23:56:32.029Z,2.15
2022-12-19T23:59:00.138Z,1.30
